Time;durP1;ratioP1;P1;durP2;ratioP2;P2;SDS_P1;SDS_P2;PMS_P1;PMS_P2;Temp;Humidity;BMP_temperature;BMP_pressure;BME280_temperature;BME280_humidity;BME280_pressure;Samples;Min_cycle;Max_cycle;Signal;HPM_P1;HPM_P2
2023/03/10 00:02:20;;;;;;;1.60;0.93;;;12.40;99.90;;;;;;7391851;19;20145;-75
2023/03/10 00:04:50;;;;;;;3.13;1.20;;;12.40;99.90;;;;;;7391113;19;20160;-75
2023/03/10 00:07:16;;;;;;;4.05;1.00;;;12.40;99.90;;;;;;7390319;19;20142;-75
2023/03/10 00:09:42;;;;;;;3.35;1.02;;;12.40;99.90;;;;;;7389469;19;20147;-75
2023/03/10 00:12:08;;;;;;;1.42;1.10;;;12.30;99.90;;;;;;7389706;19;20127;-74
2023/03/10 00:14:34;;;;;;;1.95;1.00;;;12.30;99.90;;;;;;7390616;19;21265;-76
2023/03/10 00:16:59;;;;;;;2.35;1.13;;;12.30;99.90;;;;;;7390450;19;20143;-75
2023/03/10 00:19:25;;;;;;;2.05;1.00;;;12.30;99.90;;;;;;7390306;19;20165;-75
2023/03/10 00:21:52;;;;;;;3.88;1.00;;;12.20;99.90;;;;;;7390650;19;21757;-75
2023/03/10 00:24:17;;;;;;;3.35;1.17;;;12.20;99.90;;;;;;7390708;19;20138;-75
2023/03/10 00:26:44;;;;;;;1.63;0.90;;;12.20;99.90;;;;;;7389685;19;20162;-76
2023/03/10 00:29:11;;;;;;;2.70;1.23;;;12.20;99.90;;;;;;7389969;19;20150;-75
2023/03/10 00:31:40;;;;;;;1.95;1.10;;;12.30;99.90;;;;;;7389591;19;20138;-75
2023/03/10 00:34:06;;;;;;;1.85;0.80;;;12.30;99.90;;;;;;7387524;19;20168;-75
2023/03/10 00:36:33;;;;;;;1.75;1.00;;;12.40;99.90;;;;;;7389979;19;20146;-76
2023/03/10 00:39:00;;;;;;;2.45;1.17;;;12.40;99.90;;;;;;7388879;19;20174;-75
2023/03/10 00:41:31;;;;;;;2.33;0.98;;;12.40;99.90;;;;;;7388897;19;20145;-77
2023/03/10 00:43:57;;;;;;;1.90;0.80;;;12.30;99.90;;;;;;7389829;19;20413;-75
2023/03/10 00:46:25;;;;;;;1.55;0.75;;;12.40;99.90;;;;;;7388739;19;20163;-76
2023/03/10 00:48:50;;;;;;;1.83;0.83;;;12.40;99.90;;;;;;7389613;19;20143;-76
2023/03/10 00:51:17;;;;;;;2.30;0.90;;;12.30;99.90;;;;;;7388790;19;20149;-75
2023/03/10 00:53:43;;;;;;;1.58;0.90;;;12.40;99.90;;;;;;7390632;19;20198;-75
2023/03/10 00:56:16;;;;;;;2.23;0.97;;;12.20;99.90;;;;;;7387114;19;20130;-76
2023/03/10 00:58:43;;;;;;;2.50;0.90;;;12.20;99.90;;;;;;7390098;19;20146;-75
2023/03/10 01:01:21;;;;;;;4.70;1.00;;;12.30;99.90;;;;;;7388418;19;20169;-76
2023/03/10 01:03:50;;;;;;;4.13;1.10;;;12.40;99.90;;;;;;7387758;19;20971;-76
2023/03/10 01:06:16;;;;;;;3.40;1.05;;;12.30;99.90;;;;;;7391564;19;20146;-75
2023/03/10 01:08:42;;;;;;;2.05;1.00;;;12.30;99.90;;;;;;7387921;19;20138;-77
2023/03/10 01:11:07;;;;;;;2.47;0.75;;;12.40;99.90;;;;;;7389484;19;20599;-76
2023/03/10 01:13:33;;;;;;;5.20;1.10;;;12.50;99.90;;;;;;7384177;19;20135;-76
2023/03/10 01:15:59;;;;;;;2.55;1.10;;;12.40;99.90;;;;;;7389254;19;20122;-76
2023/03/10 01:18:25;;;;;;;1.52;0.60;;;12.30;99.90;;;;;;7388590;19;20151;-76
2023/03/10 01:20:51;;;;;;;4.18;0.90;;;12.10;99.90;;;;;;7386750;19;20133;-76
2023/03/10 01:23:19;;;;;;;2.85;0.93;;;12.10;99.90;;;;;;7388178;19;20142;-75
2023/03/10 01:25:45;;;;;;;1.65;0.60;;;12.10;99.90;;;;;;7386170;19;20288;-77
2023/03/10 01:28:11;;;;;;;1.17;0.77;;;12.20;99.90;;;;;;7389448;19;20135;-76
2023/03/10 01:30:38;;;;;;;2.53;0.98;;;12.10;99.90;;;;;;7389072;19;20135;-75
2023/03/10 01:33:04;;;;;;;1.83;0.77;;;12.30;99.90;;;;;;7390210;19;20135;-74
2023/03/10 01:35:30;;;;;;;2.60;1.00;;;12.30;99.90;;;;;;7388284;19;20134;-75
2023/03/10 01:37:56;;;;;;;2.35;0.88;;;12.20;99.90;;;;;;7388562;19;20610;-76
2023/03/10 01:40:22;;;;;;;2.75;0.70;;;12.10;99.90;;;;;;7387561;19;20149;-74
2023/03/10 01:42:48;;;;;;;1.53;0.70;;;12.10;99.90;;;;;;7388223;19;20614;-75
2023/03/10 01:45:14;;;;;;;2.30;0.70;;;12.10;99.90;;;;;;7386477;19;20131;-76
2023/03/10 01:47:44;;;;;;;1.63;0.93;;;12.20;99.90;;;;;;7386413;19;20150;-75
2023/03/10 01:50:17;;;;;;;2.33;0.80;;;12.30;99.90;;;;;;7388584;19;20138;-77
2023/03/10 01:52:47;;;;;;;4.35;1.20;;;12.40;99.90;;;;;;7389559;19;20130;-75
2023/03/10 01:55:20;;;;;;;2.78;1.08;;;12.30;99.90;;;;;;7390206;19;20130;-76
2023/03/10 01:57:51;;;;;;;1.75;0.90;;;12.10;99.90;;;;;;7389930;19;20135;-75
2023/03/10 02:00:22;;;;;;;2.97;1.10;;;12.30;99.90;;;;;;7388378;19;20615;-78
2023/03/10 02:03:08;;;;;;;4.07;0.83;;;12.00;99.90;;;;;;7386401;19;20135;-76
2023/03/10 02:05:44;;;;;;;4.30;0.90;;;12.00;99.90;;;;;;7384743;19;20178;-76
2023/03/10 02:08:10;;;;;;;4.80;1.15;;;12.00;99.90;;;;;;7388371;19;20465;-77
2023/03/10 02:10:36;;;;;;;0.73;0.70;;;11.90;99.90;;;;;;7388806;19;20135;-77
2023/03/10 02:13:02;;;;;;;1.65;0.93;;;11.90;99.90;;;;;;7386574;19;20130;-78
2023/03/10 02:15:28;;;;;;;1.63;0.77;;;12.00;99.90;;;;;;7388482;19;20131;-77
2023/03/10 02:17:55;;;;;;;1.88;0.60;;;11.80;99.90;;;;;;7388952;19;20602;-78
2023/03/10 02:20:39;;;;;;;3.10;1.05;;;12.00;99.90;;;;;;7387416;19;20141;-78
2023/03/10 02:23:06;;;;;;;1.20;0.60;;;12.20;99.90;;;;;;7385353;19;20146;-77
2023/03/10 02:25:46;;;;;;;2.38;0.73;;;12.20;99.90;;;;;;7386989;19;20251;-77
2023/03/10 02:28:13;;;;;;;2.88;0.90;;;12.20;99.90;;;;;;7388837;19;20165;-77
2023/03/10 02:30:47;;;;;;;1.88;0.80;;;12.20;99.90;;;;;;7389240;19;20143;-76
2023/03/10 02:33:17;;;;;;;1.13;0.63;;;12.10;99.90;;;;;;7393174;19;20134;-78
2023/03/10 02:35:44;;;;;;;2.60;0.83;;;11.90;99.90;;;;;;7393391;19;20138;-77
2023/03/10 02:38:09;;;;;;;3.47;0.77;;;12.00;99.90;;;;;;7393691;19;20150;-77
2023/03/10 02:40:39;;;;;;;5.53;0.80;;;11.80;99.90;;;;;;7393356;19;20130;-76
2023/03/10 02:43:25;;;;;;;1.23;0.70;;;11.90;99.90;;;;;;7394360;19;20126;-77
2023/03/10 02:45:54;;;;;;;5.05;0.90;;;11.80;99.90;;;;;;7392264;19;20476;-77
2023/03/10 02:48:28;;;;;;;1.90;0.60;;;11.90;99.90;;;;;;7395475;19;20135;-76
2023/03/10 02:50:54;;;;;;;1.38;0.68;;;11.70;99.90;;;;;;7394580;19;20166;-76
2023/03/10 02:53:23;;;;;;;0.43;0.40;;;11.80;99.90;;;;;;7394959;19;20126;-77
2023/03/10 02:55:50;;;;;;;2.30;0.70;;;11.70;99.90;;;;;;7387940;19;20138;-77
2023/03/10 02:58:16;;;;;;;0.50;0.50;;;11.70;99.90;;;;;;7393090;19;20142;-76
2023/03/10 03:00:47;;;;;;;0.40;0.40;;;11.60;99.90;;;;;;7391994;19;20161;-75
2023/03/10 03:03:15;;;;;;;0.67;0.53;;;11.70;99.90;;;;;;7392148;19;20178;-76
2023/03/10 03:05:40;;;;;;;1.98;0.63;;;11.50;99.90;;;;;;7392708;19;20162;-76
2023/03/10 03:08:07;;;;;;;0.53;0.50;;;11.70;99.90;;;;;;7392435;19;20612;-77
2023/03/10 03:10:36;;;;;;;1.03;0.67;;;11.70;99.90;;;;;;7394045;19;20214;-76
2023/03/10 03:13:01;;;;;;;0.63;0.63;;;11.60;99.90;;;;;;7394473;19;20130;-76
2023/03/10 03:15:27;;;;;;;0.43;0.43;;;11.60;99.90;;;;;;7393444;19;20141;-78
2023/03/10 03:17:53;;;;;;;1.87;0.70;;;11.40;99.90;;;;;;7393318;19;20131;-77
2023/03/10 03:20:20;;;;;;;1.30;0.50;;;11.40;99.90;;;;;;7393008;19;20143;-76
2023/03/10 03:22:47;;;;;;;1.02;0.43;;;11.30;99.90;;;;;;7393772;19;20155;-77
2023/03/10 03:25:15;;;;;;;2.65;0.60;;;11.40;99.90;;;;;;7390237;19;20155;-77
2023/03/10 03:27:41;;;;;;;0.70;0.60;;;11.40;99.90;;;;;;7395748;19;20146;-77
2023/03/10 03:30:13;;;;;;;1.73;0.57;;;11.50;99.90;;;;;;7393575;19;20167;-77
2023/03/10 03:32:39;;;;;;;1.00;0.65;;;11.50;99.90;;;;;;7394106;19;20256;-77
2023/03/10 03:35:09;;;;;;;1.10;0.50;;;11.40;99.90;;;;;;7392884;19;20146;-76
2023/03/10 03:37:35;;;;;;;1.42;0.50;;;11.40;99.90;;;;;;7395733;19;20157;-77
2023/03/10 03:40:01;;;;;;;0.90;0.57;;;11.30;99.90;;;;;;7394234;19;20924;-77
2023/03/10 03:42:27;;;;;;;1.15;0.50;;;11.40;99.90;;;;;;7387622;19;20154;-77
2023/03/10 03:44:53;;;;;;;1.03;0.50;;;11.20;99.90;;;;;;7388905;19;20143;-78
2023/03/10 03:47:18;;;;;;;0.40;0.40;;;11.30;99.90;;;;;;7392861;19;20126;-77
2023/03/10 03:49:44;;;;;;;1.23;0.40;;;11.30;99.90;;;;;;7392210;19;20223;-77
2023/03/10 03:52:10;;;;;;;0.40;0.40;;;11.30;99.90;;;;;;7391455;19;20150;-76
2023/03/10 03:54:35;;;;;;;0.35;0.35;;;11.30;99.90;;;;;;7381517;19;20131;-77
2023/03/10 03:57:01;;;;;;;0.40;0.30;;;11.30;99.90;;;;;;7392501;19;20130;-77
2023/03/10 03:59:27;;;;;;;0.53;0.50;;;11.50;99.90;;;;;;7391897;19;20508;-76
2023/03/10 04:01:53;;;;;;;0.65;0.55;;;11.70;99.90;;;;;;7390879;19;20143;-76
2023/03/10 04:04:18;;;;;;;1.23;0.50;;;11.80;99.90;;;;;;7392046;19;20147;-77
2023/03/10 04:06:44;;;;;;;0.53;0.40;;;11.80;99.90;;;;;;7391110;19;20138;-77
2023/03/10 04:09:12;;;;;;;0.65;0.50;;;11.60;99.90;;;;;;7392278;19;20640;-78
2023/03/10 04:11:38;;;;;;;0.50;0.50;;;11.60;99.90;;;;;;7391142;19;20146;-77
2023/03/10 04:14:04;;;;;;;0.30;0.30;;;11.70;99.90;;;;;;7391349;19;20145;-77
2023/03/10 04:16:29;;;;;;;0.70;0.50;;;11.60;99.90;;;;;;7389877;19;20186;-77
2023/03/10 04:18:55;;;;;;;1.70;0.50;;;11.50;99.90;;;;;;7391502;19;20152;-77
2023/03/10 04:21:22;;;;;;;0.32;0.30;;;11.40;99.90;;;;;;7389785;19;20556;-78
2023/03/10 04:23:48;;;;;;;1.20;0.43;;;11.60;99.90;;;;;;7389251;19;20142;-76
2023/03/10 04:26:14;;;;;;;0.90;0.50;;;11.50;99.90;;;;;;7390838;19;20188;-78
2023/03/10 04:28:40;;;;;;;0.30;0.30;;;11.70;99.90;;;;;;7390584;19;20714;-78
2023/03/10 04:31:14;;;;;;;1.77;0.50;;;11.60;99.90;;;;;;7388804;19;20160;-77
2023/03/10 04:33:40;;;;;;;0.63;0.30;;;11.60;99.90;;;;;;7389779;19;20193;-77
2023/03/10 04:36:06;;;;;;;0.50;0.35;;;11.60;99.90;;;;;;7392086;19;20601;-76
2023/03/10 04:38:31;;;;;;;0.80;0.47;;;11.60;99.90;;;;;;7393653;19;20139;-77
2023/03/10 04:40:57;;;;;;;1.20;0.40;;;11.70;99.90;;;;;;7391148;19;20170;-76
2023/03/10 04:43:24;;;;;;;0.63;0.40;;;11.60;99.90;;;;;;7390452;19;20146;-78
2023/03/10 04:45:50;;;;;;;1.57;0.50;;;11.70;99.90;;;;;;7385708;19;20166;-75
2023/03/10 04:48:16;;;;;;;1.00;0.50;;;11.80;99.90;;;;;;7389050;19;20501;-77
2023/03/10 04:50:42;;;;;;;1.50;0.60;;;11.80;99.90;;;;;;7391281;19;20134;-77
2023/03/10 04:53:08;;;;;;;0.97;0.40;;;11.90;99.90;;;;;;7390168;19;20139;-77
2023/03/10 04:55:34;;;;;;;1.90;0.67;;;11.90;99.90;;;;;;7388945;19;20178;-77
2023/03/10 04:58:00;;;;;;;1.20;0.30;;;11.90;99.90;;;;;;7389244;19;20150;-76
2023/03/10 05:00:26;;;;;;;1.47;0.50;;;11.80;99.90;;;;;;7389127;19;20509;-78
2023/03/10 05:02:51;;;;;;;0.35;0.35;;;11.90;99.90;;;;;;7390583;19;20135;-77
2023/03/10 05:05:19;;;;;;;2.30;0.77;;;11.90;99.90;;;;;;7388954;19;20545;-76
2023/03/10 05:07:46;;;;;;;1.50;0.57;;;11.90;99.90;;;;;;7389419;19;20169;-76
2023/03/10 05:10:11;;;;;;;1.40;0.57;;;11.90;99.90;;;;;;7389906;19;20595;-77
2023/03/10 05:12:38;;;;;;;1.47;0.60;;;11.80;99.90;;;;;;7388040;19;20202;-76
2023/03/10 05:15:04;;;;;;;0.60;0.50;;;11.80;99.90;;;;;;7391159;19;20130;-78
2023/03/10 05:17:30;;;;;;;1.00;0.57;;;11.70;99.90;;;;;;7389490;19;20159;-77
2023/03/10 05:19:57;;;;;;;0.70;0.50;;;11.80;99.90;;;;;;7388602;19;20484;-77
2023/03/10 05:22:23;;;;;;;0.80;0.50;;;11.70;99.90;;;;;;7388472;19;20142;-77
2023/03/10 05:24:49;;;;;;;0.33;0.33;;;11.70;99.90;;;;;;7387856;19;20131;-76
2023/03/10 05:27:17;;;;;;;0.90;0.47;;;11.60;99.90;;;;;;7387808;19;20798;-77
2023/03/10 05:29:43;;;;;;;1.43;0.60;;;11.40;99.90;;;;;;7390961;19;20617;-77
2023/03/10 05:32:09;;;;;;;2.33;0.60;;;11.50;99.90;;;;;;7391253;19;20122;-75
2023/03/10 05:34:35;;;;;;;1.00;0.70;;;11.40;99.90;;;;;;7388487;19;20126;-76
2023/03/10 05:37:00;;;;;;;2.13;0.60;;;11.60;99.90;;;;;;7390785;19;20130;-77
2023/03/10 05:39:26;;;;;;;1.60;0.80;;;11.60;99.90;;;;;;7389881;19;20142;-76
2023/03/10 05:41:52;;;;;;;2.00;0.70;;;11.70;99.90;;;;;;7386590;19;20534;-76
2023/03/10 05:44:17;;;;;;;2.73;0.90;;;11.40;99.90;;;;;;7387004;19;20190;-76
2023/03/10 05:46:43;;;;;;;1.52;1.13;;;11.40;99.90;;;;;;7387840;19;20131;-76
2023/03/10 05:49:09;;;;;;;1.35;0.90;;;11.40;99.90;;;;;;7387832;19;20155;-76
2023/03/10 05:51:36;;;;;;;3.27;0.90;;;11.40;99.90;;;;;;7387098;19;20237;-77
2023/03/10 05:54:04;;;;;;;1.27;0.60;;;11.40;99.90;;;;;;7386278;19;20169;-76
2023/03/10 05:56:31;;;;;;;1.30;0.83;;;11.60;99.90;;;;;;7389491;19;20576;-76
2023/03/10 05:58:57;;;;;;;4.13;0.70;;;11.60;99.90;;;;;;7388844;19;20134;-76
2023/03/10 06:01:23;;;;;;;2.93;0.90;;;11.70;99.90;;;;;;7383778;19;20142;-77
2023/03/10 06:03:48;;;;;;;1.13;0.70;;;11.70;99.90;;;;;;7386537;19;20138;-76
2023/03/10 06:06:14;;;;;;;2.40;0.80;;;11.70;99.90;;;;;;7384293;19;21146;-77
2023/03/10 06:08:41;;;;;;;1.00;0.63;;;11.70;99.90;;;;;;7392629;19;20145;-76
2023/03/10 06:11:08;;;;;;;2.65;0.70;;;11.80;99.90;;;;;;7394583;19;20613;-75
2023/03/10 06:13:33;;;;;;;2.90;0.68;;;11.70;99.90;;;;;;7392745;19;20166;-76
2023/03/10 06:16:02;;;;;;;0.75;0.60;;;11.70;99.90;;;;;;7397082;19;20123;-76
2023/03/10 06:18:28;;;;;;;2.53;0.90;;;11.60;99.90;;;;;;7395604;19;20150;-77
2023/03/10 06:20:56;;;;;;;1.47;0.63;;;11.40;99.90;;;;;;7395092;19;20147;-78
2023/03/10 06:23:23;;;;;;;2.00;0.80;;;11.60;99.90;;;;;;7394688;19;20190;-77
2023/03/10 06:26:05;;;;;;;4.43;0.70;;;11.70;99.90;;;;;;7391999;19;20518;-76
2023/03/10 06:28:32;;;;;;;2.90;0.60;;;11.50;99.90;;;;;;7396578;19;20130;-77
2023/03/10 06:31:00;;;;;;;1.47;0.60;;;11.40;99.90;;;;;;7393876;19;20750;-77
2023/03/10 06:33:27;;;;;;;1.67;0.70;;;11.20;99.90;;;;;;7393956;19;20607;-78
2023/03/10 06:36:02;;;;;;;0.80;0.47;;;11.00;99.90;;;;;;7393200;19;20150;-80
2023/03/10 06:38:27;;;;;;;4.00;2.13;;;10.80;99.90;;;;;;7392307;19;20173;-79
2023/03/10 06:40:54;;;;;;;1.97;0.53;;;10.70;99.90;;;;;;7393861;19;20127;-78
2023/03/10 06:43:19;;;;;;;2.10;0.60;;;10.70;99.90;;;;;;7394671;19;20133;-77
2023/03/10 06:45:46;;;;;;;1.90;0.43;;;10.60;99.90;;;;;;7391107;19;20131;-78
2023/03/10 06:48:13;;;;;;;0.83;0.40;;;10.50;99.90;;;;;;7391342;19;20147;-77
2023/03/10 06:50:43;;;;;;;2.40;0.50;;;10.60;99.90;;;;;;7386213;19;20138;-79
2023/03/10 06:53:10;;;;;;;4.53;2.60;;;10.50;99.90;;;;;;7388700;19;20139;-78
2023/03/10 06:55:37;;;;;;;1.23;0.60;;;10.50;99.90;;;;;;7390490;19;20143;-79
2023/03/10 06:58:03;;;;;;;1.20;0.50;;;10.60;99.90;;;;;;7393656;19;20139;-78
2023/03/10 07:00:31;;;;;;;1.77;0.60;;;10.80;99.90;;;;;;7390298;19;20138;-79
2023/03/10 07:02:57;;;;;;;1.30;0.60;;;10.90;99.90;;;;;;7392377;19;20149;-77
2023/03/10 07:05:26;;;;;;;1.50;0.70;;;11.00;99.90;;;;;;7391966;19;20225;-79
2023/03/10 07:07:54;;;;;;;2.43;0.63;;;11.10;99.90;;;;;;7393501;19;20127;-78
2023/03/10 07:10:21;;;;;;;2.60;0.50;;;11.20;99.90;;;;;;7392878;19;20139;-79
2023/03/10 07:12:53;;;;;;;1.13;0.60;;;11.40;99.90;;;;;;7395240;19;20485;-78
2023/03/10 07:15:23;;;;;;;0.70;0.50;;;11.50;99.90;;;;;;7394631;19;20162;-79
2023/03/10 07:17:49;;;;;;;3.27;0.77;;;11.60;99.90;;;;;;7392441;19;20539;-79
2023/03/10 07:20:16;;;;;;;4.23;2.00;;;11.70;99.90;;;;;;7393477;19;20139;-79
2023/03/10 07:22:42;;;;;;;2.70;1.73;;;11.70;99.90;;;;;;7395217;19;20598;-79
2023/03/10 07:25:08;;;;;;;3.07;1.20;;;11.70;99.90;;;;;;7390296;19;20139;-78
2023/03/10 07:27:34;;;;;;;4.63;1.40;;;11.80;99.90;;;;;;7395516;19;20582;-79
2023/03/10 07:30:00;;;;;;;1.70;0.90;;;11.90;99.90;;;;;;7392693;19;20131;-79
2023/03/10 07:32:27;;;;;;;7.10;4.17;;;12.00;99.90;;;;;;7392871;19;20126;-81
2023/03/10 07:34:52;;;;;;;7.78;5.03;;;12.10;99.90;;;;;;7395174;19;20167;-79
2023/03/10 07:37:20;;;;;;;7.80;4.80;;;12.20;99.90;;;;;;7388038;19;20850;-79
2023/03/10 07:39:46;;;;;;;6.22;3.05;;;12.20;99.90;;;;;;7385003;19;20616;-79
2023/03/10 07:42:12;;;;;;;5.30;2.47;;;12.30;99.90;;;;;;7387352;19;20614;-79
2023/03/10 07:44:37;;;;;;;6.63;4.20;;;12.30;99.90;;;;;;7387375;19;20137;-79
2023/03/10 07:47:03;;;;;;;2.07;1.00;;;12.30;99.90;;;;;;7391483;19;20151;-78
2023/03/10 07:49:29;;;;;;;1.57;0.67;;;12.30;99.90;;;;;;7387819;19;20122;-79
2023/03/10 07:51:55;;;;;;;1.30;1.02;;;12.10;99.90;;;;;;7387988;19;20241;-78
2023/03/10 07:54:22;;;;;;;3.10;1.00;;;12.20;99.90;;;;;;7393489;19;20149;-79
2023/03/10 07:56:47;;;;;;;1.40;0.80;;;12.10;99.90;;;;;;7392831;19;20143;-80
2023/03/10 07:59:13;;;;;;;2.78;1.10;;;12.10;99.90;;;;;;7390402;19;20135;-80
2023/03/10 08:01:40;;;;;;;1.93;1.00;;;11.80;99.90;;;;;;7390911;19;20142;-79
2023/03/10 08:04:06;;;;;;;4.15;1.02;;;12.00;99.90;;;;;;7391505;19;20153;-78
2023/03/10 08:06:34;;;;;;;3.43;0.90;;;12.10;99.90;;;;;;7397149;19;20135;-77
2023/03/10 08:08:59;;;;;;;2.37;1.10;;;11.90;99.90;;;;;;7392954;19;20142;-78
2023/03/10 08:11:26;;;;;;;3.97;1.90;;;11.90;99.90;;;;;;7390624;19;20154;-79
2023/03/10 08:13:58;;;;;;;7.37;2.20;;;11.90;99.90;;;;;;7391529;19;20151;-79
2023/03/10 08:16:25;;;;;;;2.53;0.70;;;11.70;99.90;;;;;;7390910;19;20658;-78
2023/03/10 08:18:53;;;;;;;3.83;0.73;;;11.40;99.90;;;;;;7391719;19;20154;-78
2023/03/10 08:21:20;;;;;;;2.60;1.10;;;11.20;99.90;;;;;;7393618;19;20131;-78
2023/03/10 08:23:46;;;;;;;4.37;0.77;;;11.20;99.90;;;;;;7389206;19;20162;-78
2023/03/10 08:26:18;;;;;;;0.57;0.53;;;11.10;99.90;;;;;;7387963;19;20157;-79
2023/03/10 08:28:44;;;;;;;1.10;0.70;;;11.20;99.90;;;;;;7388928;19;20150;-79
2023/03/10 08:31:15;;;;;;;2.83;0.90;;;11.10;99.90;;;;;;7393393;19;20146;-80
2023/03/10 08:33:43;;;;;;;1.27;0.60;;;11.00;99.90;;;;;;7397188;19;20248;-78
2023/03/10 08:36:13;;;;;;;0.88;0.50;;;10.90;99.90;;;;;;7401800;19;20130;-77
2023/03/10 08:38:42;;;;;;;1.35;0.60;;;10.90;99.90;;;;;;7395164;19;20154;-78
2023/03/10 08:41:14;;;;;;;2.50;0.90;;;11.10;99.90;;;;;;7393512;19;20571;-79
2023/03/10 08:43:40;;;;;;;7.23;4.90;;;11.30;99.90;;;;;;7391269;19;20146;-78
2023/03/10 08:46:06;;;;;;;3.97;1.93;;;11.50;99.90;;;;;;7388512;19;20162;-78
2023/03/10 08:48:33;;;;;;;5.87;2.93;;;11.40;99.90;;;;;;7389351;19;20161;-78
2023/03/10 08:50:58;;;;;;;1.80;0.63;;;11.60;99.90;;;;;;7389506;19;20138;-79
2023/03/10 08:53:25;;;;;;;1.83;0.60;;;11.80;99.90;;;;;;7391771;19;20135;-78
2023/03/10 08:55:51;;;;;;;1.17;0.80;;;11.90;99.90;;;;;;7392492;19;20429;-78
2023/03/10 08:58:17;;;;;;;1.13;0.73;;;12.00;99.90;;;;;;7388741;19;20142;-79
2023/03/10 09:00:43;;;;;;;1.10;0.67;;;11.70;99.90;;;;;;7389240;19;20270;-79
2023/03/10 09:03:10;;;;;;;1.47;1.00;;;11.80;99.90;;;;;;7389543;19;20142;-78
2023/03/10 09:05:36;;;;;;;0.90;0.70;;;11.90;99.90;;;;;;7387408;19;20138;-78
2023/03/10 09:08:05;;;;;;;1.90;1.20;;;11.70;99.90;;;;;;7386949;19;20138;-79
2023/03/10 09:10:31;;;;;;;4.38;1.20;;;11.80;99.90;;;;;;7389937;19;20210;-78
2023/03/10 09:12:59;;;;;;;4.40;2.60;;;11.90;99.90;;;;;;7388218;19;20153;-78
2023/03/10 09:15:28;;;;;;;3.38;1.65;;;12.00;99.90;;;;;;7391177;19;20162;-78
2023/03/10 09:17:54;;;;;;;1.00;0.80;;;12.20;99.90;;;;;;7395913;19;20159;-78
2023/03/10 09:20:24;;;;;;;0.70;0.70;;;12.60;99.90;;;;;;7393694;19;20146;-78
2023/03/10 09:22:59;;;;;;;3.15;1.17;;;13.10;99.90;;;;;;7387766;19;20169;-79
2023/03/10 09:25:25;;;;;;;2.22;0.70;;;13.20;99.90;;;;;;7387732;19;20137;-79
2023/03/10 09:27:53;;;;;;;1.40;0.70;;;13.10;99.90;;;;;;7391401;19;20131;-79
2023/03/10 09:30:21;;;;;;;1.20;0.80;;;13.30;99.90;;;;;;7390850;19;20497;-79
2023/03/10 09:32:57;;;;;;;0.85;0.85;;;13.20;99.90;;;;;;7387095;19;20170;-78
2023/03/10 09:35:33;;;;;;;3.22;1.05;;;13.10;99.90;;;;;;7390353;19;20142;-78
2023/03/10 09:38:00;;;;;;;3.20;1.45;;;13.10;99.90;;;;;;7390172;19;20531;-78
2023/03/10 09:40:26;;;;;;;2.58;0.82;;;13.00;99.90;;;;;;7388828;19;20169;-79
2023/03/10 09:43:06;;;;;;;5.47;1.38;;;12.90;99.90;;;;;;7387182;19;20143;-80
2023/03/10 09:45:56;;;;;;;1.15;0.73;;;12.90;99.90;;;;;;7391436;19;20649;-79
2023/03/10 09:48:35;;;;;;;0.80;0.63;;;13.00;99.90;;;;;;7391070;19;20170;-78
2023/03/10 09:51:12;;;;;;;3.17;0.80;;;12.90;99.90;;;;;;7389085;19;20170;-78
2023/03/10 09:54:30;;;;;;;1.50;0.90;;;12.90;99.90;;;;;;7391720;19;20158;-77
2023/03/10 09:56:58;;;;;;;1.80;0.88;;;13.00;99.90;;;;;;7390482;19;20158;-77
2023/03/10 09:59:38;;;;;;;1.30;0.50;;;12.80;99.90;;;;;;7391811;19;20158;-77
2023/03/10 10:02:45;;;;;;;0.50;0.50;;;12.70;99.90;;;;;;7390587;19;20146;-77
2023/03/10 10:05:26;;;;;;;4.55;2.85;;;12.80;99.90;;;;;;7387583;19;20173;-78
2023/03/10 10:07:56;;;;;;;1.88;0.60;;;13.00;99.90;;;;;;7389404;19;20147;-78
2023/03/10 10:10:28;;;;;;;14.75;7.97;;;13.30;99.90;;;;;;7390507;19;20216;-79
2023/03/10 10:13:00;;;;;;;1.42;1.10;;;13.10;99.90;;;;;;7390842;19;20142;-79
2023/03/10 10:15:30;;;;;;;1.83;0.90;;;13.20;99.90;;;;;;7388983;19;20170;-79
2023/03/10 10:18:03;;;;;;;1.33;0.88;;;13.10;99.90;;;;;;7389711;19;20131;-79
2023/03/10 10:20:49;;;;;;;1.35;0.70;;;13.10;99.90;;;;;;7387043;19;20142;-79
2023/03/10 10:23:43;;;;;;;2.58;1.35;;;13.10;99.90;;;;;;7387278;19;20229;-79
2023/03/10 10:26:17;;;;;;;3.88;2.33;;;13.00;99.90;;;;;;7386568;19;20139;-78
2023/03/10 10:28:50;;;;;;;1.00;0.70;;;13.10;99.90;;;;;;7385657;19;20630;-78
2023/03/10 10:31:23;;;;;;;1.48;0.70;;;13.00;99.90;;;;;;7389351;19;20616;-77
2023/03/10 10:34:00;;;;;;;2.47;0.93;;;12.90;99.90;;;;;;7388172;19;20158;-78
2023/03/10 10:36:35;;;;;;;1.60;0.55;;;12.90;99.90;;;;;;7386853;19;20175;-79
2023/03/10 10:39:18;;;;;;;4.20;2.40;;;12.80;99.90;;;;;;7400006;19;20141;-77
2023/03/10 10:41:44;;;;;;;2.47;0.95;;;12.50;99.90;;;;;;7386823;19;20169;-79
2023/03/10 10:44:15;;;;;;;2.50;0.70;;;12.60;99.90;;;;;;7387286;19;20613;-79
2023/03/10 10:46:54;;;;;;;1.38;0.65;;;12.70;99.90;;;;;;7387264;19;20141;-78
2023/03/10 10:49:26;;;;;;;2.30;0.60;;;12.50;99.90;;;;;;7387122;19;20150;-78
2023/03/10 10:52:04;;;;;;;2.10;0.85;;;12.50;99.90;;;;;;7387214;19;20221;-79
2023/03/10 10:54:39;;;;;;;1.85;0.50;;;12.70;99.90;;;;;;7395003;19;20126;-82
2023/03/10 10:57:18;;;;;;;1.20;0.80;;;12.80;99.90;;;;;;7393173;19;20598;-79
2023/03/10 10:59:45;;;;;;;1.90;0.60;;;12.90;99.90;;;;;;7397104;19;20138;-78
2023/03/10 11:02:31;;;;;;;4.20;2.20;;;12.80;99.90;;;;;;7393678;19;20646;-78
2023/03/10 11:05:14;;;;;;;7.00;3.85;;;12.90;99.90;;;;;;7390510;19;20179;-78
2023/03/10 11:07:40;;;;;;;2.88;1.10;;;12.80;99.90;;;;;;7394791;19;20899;-79
2023/03/10 11:10:16;;;;;;;14.07;7.75;;;12.90;99.90;;;;;;7392696;19;20146;-79
2023/03/10 11:12:52;;;;;;;1.85;1.27;;;12.90;99.90;;;;;;7394911;19;20230;-78
2023/03/10 11:15:29;;;;;;;2.65;0.80;;;12.70;99.90;;;;;;7396121;19;20506;-79
2023/03/10 11:18:02;;;;;;;2.45;1.17;;;12.70;99.90;;;;;;7393446;19;20130;-80
2023/03/10 11:20:59;;;;;;;3.03;1.13;;;12.90;99.90;;;;;;7393566;19;20146;-78
2023/03/10 11:23:45;;;;;;;2.03;0.82;;;13.00;99.90;;;;;;7393894;19;20222;-78
2023/03/10 11:26:11;;;;;;;3.35;0.90;;;13.10;99.90;;;;;;7393125;19;20949;-79
2023/03/10 11:29:03;;;;;;;1.88;0.77;;;13.00;99.90;;;;;;7395234;19;20138;-78
2023/03/10 11:31:38;;;;;;;2.15;1.42;;;12.90;99.90;;;;;;7392789;19;20234;-77
2023/03/10 11:34:09;;;;;;;1.05;0.50;;;12.60;99.90;;;;;;7392618;19;20152;-79
2023/03/10 11:37:13;;;;;;;0.70;0.60;;;12.80;99.90;;;;;;7395397;19;20134;-79
2023/03/10 11:40:06;;;;;;;1.35;0.68;;;12.70;99.90;;;;;;7395958;19;20135;-79
2023/03/10 11:43:03;;;;;;;3.80;1.05;;;12.50;99.90;;;;;;7395310;19;20135;-79
2023/03/10 11:45:32;;;;;;;1.15;0.70;;;12.70;99.90;;;;;;7393096;19;20134;-78
2023/03/10 11:48:35;;;;;;;4.22;1.70;;;12.80;99.90;;;;;;7394665;19;20158;-77
2023/03/10 11:51:04;;;;;;;2.70;0.95;;;12.80;99.90;;;;;;7393910;19;20146;-78
2023/03/10 11:54:09;;;;;;;2.45;1.25;;;12.90;99.90;;;;;;7392624;19;20153;-78
2023/03/10 11:56:36;;;;;;;2.53;0.70;;;12.60;99.90;;;;;;7390898;19;20153;-78
2023/03/10 11:59:24;;;;;;;3.20;0.65;;;12.50;99.90;;;;;;7394564;19;20187;-78
2023/03/10 12:02:10;;;;;;;1.45;0.50;;;12.40;99.90;;;;;;7392623;19;20615;-78
2023/03/10 12:04:52;;;;;;;1.70;0.70;;;12.50;99.90;;;;;;7388697;19;20143;-78
2023/03/10 12:07:27;;;;;;;1.23;0.40;;;12.40;99.90;;;;;;7393701;19;20123;-78
2023/03/10 12:10:00;;;;;;;3.28;1.33;;;12.60;99.90;;;;;;7394650;19;20131;-78
2023/03/10 12:12:32;;;;;;;0.95;0.52;;;12.60;99.90;;;;;;7393474;19;20131;-79
2023/03/10 12:15:01;;;;;;;1.10;0.80;;;12.50;99.90;;;;;;7392372;19;20168;-79
2023/03/10 12:17:27;;;;;;;2.17;0.65;;;12.40;99.90;;;;;;7392305;19;20154;-79
2023/03/10 12:20:11;;;;;;;1.58;0.60;;;12.80;99.90;;;;;;7393832;19;20480;-79
2023/03/10 12:22:45;;;;;;;2.92;0.85;;;12.90;99.90;;;;;;7392653;19;20130;-79
2023/03/10 12:25:29;;;;;;;2.17;0.70;;;13.00;99.90;;;;;;7389817;19;20597;-78
2023/03/10 12:28:23;;;;;;;0.98;0.60;;;13.10;99.90;;;;;;7393177;19;20166;-79
2023/03/10 12:30:59;;;;;;;2.05;0.70;;;13.20;99.90;;;;;;7393355;19;20151;-78
2023/03/10 12:33:37;;;;;;;1.90;0.50;;;13.30;99.90;;;;;;7393383;19;20206;-78
2023/03/10 12:36:04;;;;;;;0.52;0.43;;;13.10;99.90;;;;;;7390907;19;20217;-78
2023/03/10 12:38:52;;;;;;;3.23;0.50;;;13.20;99.90;;;;;;7390841;19;20145;-79
2023/03/10 12:41:27;;;;;;;1.23;0.50;;;13.20;99.90;;;;;;7392748;19;20134;-79
2023/03/10 12:43:56;;;;;;;1.20;0.50;;;12.90;99.90;;;;;;7391607;19;20134;-79
2023/03/10 12:46:54;;;;;;;3.17;0.90;;;12.90;99.90;;;;;;7389166;19;20569;-79
2023/03/10 12:49:23;;;;;;;1.38;0.50;;;13.10;99.90;;;;;;7392068;19;20135;-79
2023/03/10 12:51:57;;;;;;;0.63;0.50;;;13.10;99.90;;;;;;7392736;19;20150;-79
2023/03/10 12:54:46;;;;;;;1.30;0.70;;;13.10;99.90;;;;;;7389794;19;20825;-78
2023/03/10 12:57:23;;;;;;;1.17;0.50;;;13.10;99.90;;;;;;7389801;19;20135;-76
2023/03/10 13:00:21;;;;;;;1.42;0.70;;;13.10;99.90;;;;;;7390550;19;20238;-77
2023/03/10 13:02:53;;;;;;;0.80;0.60;;;13.20;99.90;;;;;;7388512;19;20154;-76
2023/03/10 13:05:32;;;;;;;1.73;0.93;;;13.40;99.90;;;;;;7386780;19;20161;-76